< Typhoon 196820 1968 Season Typhoon 196822 >
Typhoon 196821 (IRMA)
General InformationTrack Information on Google Maps || Disaster Info.ResourceGoogle EarthGE AnimationAtom FeedGeoJSON
Detalied Best Track (Time Zone = UTC)
Year Month Day Hour Lat. Long. Pressure (hPa) Wind (kt) Class Image Chart
1968 10 18 00 9.1 165.0 1008 0 2 -- Chart
1968 10 18 06 9.3 163.6 1006 0 2 -- Chart
1968 10 18 12 9.4 162.0 1006 0 2 -- Chart
1968 10 18 18 9.5 160.7 1006 0 2 -- Chart
1968 10 19 00 9.7 159.2 1008 0 2 -- Chart
1968 10 19 06 9.9 157.7 1006 0 2 -- Chart
1968 10 19 12 10.2 156.4 1006 0 2 -- Chart
1968 10 19 18 10.4 155.2 1004 0 2 -- Chart
1968 10 20 00 10.9 153.8 1006 0 2 -- Chart
1968 10 20 06 11.3 152.3 1004 0 2 -- Chart
1968 10 20 12 12.0 151.1 1002 0 2 -- Chart
1968 10 20 18 12.8 150.1 1000 0 2 -- Chart
1968 10 21 00 13.5 148.9 996 0 2 -- Chart
1968 10 21 06 13.6 147.4 996 0 2 -- Chart
1968 10 21 12 13.7 146.1 996 0 2 -- Chart
1968 10 21 18 13.7 145.6 994 0 2 -- Chart
1968 10 22 00 13.9 145.0 990 0 9 -- Chart
1968 10 22 06 14.4 144.7 985 0 9 -- Chart
1968 10 22 12 14.9 145.0 980 0 9 -- Chart
1968 10 22 18 15.8 145.3 975 0 9 -- Chart
1968 10 23 00 17.4 145.6 975 0 9 -- Chart
1968 10 23 06 19.2 146.0 970 0 9 -- Chart
1968 10 23 12 21.1 146.7 965 0 9 -- Chart
1968 10 23 18 23.3 147.0 960 0 9 -- Chart
1968 10 24 00 25.4 148.0 955 0 9 -- Chart
1968 10 24 06 27.6 148.9 960 0 9 -- Chart
1968 10 24 12 30.0 149.8 970 0 9 -- Chart
1968 10 24 18 32.7 151.1 975 0 9 -- Chart
1968 10 25 00 35.2 152.9 975 0 9 -- Chart
1968 10 25 06 37.4 154.6 980 0 9 -- Chart
1968 10 25 12 40.0 157.9 985 0 6 -- Chart
1968 10 25 18 41.2 161.8 990 0 6 -- Chart
1968 10 26 00 42.1 166.9 990 0 6 -- Chart
1968 10 26 06 42.0 171.7 992 0 6 -- Chart
1968 10 26 12 41.1 176.0 994 0 6 -- Chart
1968 10 26 18 40.1 180.0 996 0 6 -- Chart
1968 10 27 00 38.1 184.0 998 0 6 -- Chart
Japan Meteorological Agency Best Track Data | Correction Date : 1991-07-16
< Typhoon 196820 1968 Season Typhoon 196822 >

Help